This is the latest recevied weather packets stored in our database for station/object W5ALL-WX. If no packets are shown the sender has not sent any weather packets the latest 1 day(s).
| Time | Temp. | Humidity | Pressure | Rain* | Wind** | Luminosity | Snow |
|---|---|---|---|---|---|---|---|
| 1777996330 | 18.89° C | 37% | 1012.7 hPa | 0 mm | 0.45 m/s, 203° | - | - |
| 1777996030 | 18.89° C | 36% | 1012.5 hPa | 0 mm | 0 m/s | - | - |
| 1777995730 | 18.89° C | 36% | 1012.5 hPa | 0 mm | 1.34 m/s, 228° | - | - |
| 1777995430 | 18.89° C | 36% | 1012.5 hPa | 0 mm | 0.89 m/s, 191° | - | - |
| 1777995130 | 18.89° C | 35% | 1012.4 hPa | 0 mm | 2.24 m/s, 193° | - | - |
| 1777994830 | 18.89° C | 36% | 1012.5 hPa | 0 mm | 1.79 m/s, 165° | - | - |
| 1777994530 | 18.89° C | 37% | 1012.5 hPa | 0 mm | 2.68 m/s, 180° | - | - |
| 1777994230 | 18.89° C | 37% | 1012.5 hPa | 0 mm | 2.24 m/s, 197° | - | - |
| 1777993930 | 18.89° C | 37% | 1012.4 hPa | 0 mm | 3.13 m/s, 222° | - | - |
| 1777993630 | 18.89° C | 37% | 1012.2 hPa | 0 mm | 2.24 m/s, 193° | - | - |
| 1777993330 | 18.89° C | 37% | 1012.2 hPa | 0 mm | 2.24 m/s, 208° | - | - |
| 1777993030 | 18.89° C | 37% | 1012.2 hPa | 0 mm | 2.68 m/s, 186° | - | - |
| 1777992730 | 18.89° C | 38% | 1012.2 hPa | 0 mm | 2.68 m/s, 205° | - | - |
| 1777992430 | 18.89° C | 38% | 1012.2 hPa | 0 mm | 2.68 m/s, 177° | - | - |
| 1777992130 | 18.89° C | 38% | 1012.4 hPa | 0 mm | 3.13 m/s, 181° | - | - |
| 1777991830 | 18.33° C | 38% | 1012.4 hPa | 0 mm | 2.68 m/s, 174° | - | - |
| 1777991530 | 18.33° C | 38% | 1012.4 hPa | 0 mm | 2.24 m/s, 191° | - | - |
| 1777991230 | 18.33° C | 38% | 1012.5 hPa | 0 mm | 3.58 m/s, 188° | - | - |
| 1777990930 | 18.33° C | 38% | 1012.5 hPa | 0 mm | 3.13 m/s, 188° | - | - |
| 1777990630 | 18.33° C | 38% | 1012.4 hPa | 0 mm | 3.58 m/s, 204° | - | - |
| 1777990330 | 18.33° C | 37% | 1012.4 hPa | 0 mm | 3.13 m/s, 165° | - | - |
| 1777990030 | 18.33° C | 37% | 1012.4 hPa | 0 mm | 3.58 m/s, 210° | - | - |
| 1777989730 | 18.33° C | 37% | 1012.5 hPa | 0 mm | 2.68 m/s, 172° | - | - |
| 1777989430 | 18.33° C | 37% | 1012.6 hPa | 0 mm | 3.58 m/s, 203° | - | - |
| 1777989130 | 18.33° C | 36% | 1012.6 hPa | 0 mm | 3.58 m/s, 166° | - | - |
* Rain latest hour (hover to see other rain measurements)
** Current wind speed in m/s (hover to see current wind gust speed)